Time;durP1;ratioP1;P1;durP2;ratioP2;P2;SDS_P1;SDS_P2;PMS_P1;PMS_P2;Temp;Humidity;BMP_temperature;BMP_pressure;BME280_temperature;BME280_humidity;BME280_pressure;Samples;Min_cycle;Max_cycle;Signal;HPM_P1;HPM_P2
2022/06/18 00:00:31;;;;;;;;;;;;;;;;;;5132282;27;840;-67
2022/06/18 00:02:56;;;;;;;;;;;;;;;;;;5133312;27;1178;-67
2022/06/18 00:05:21;;;;;;;;;;;;;;;;;;5135074;27;785;-67
2022/06/18 00:07:49;;;;;;;;;;;;;;;;;;5134529;27;765;-67
2022/06/18 00:10:15;;;;;;;;;;;;;;;;;;5134910;27;1960;-67
2022/06/18 00:15:44;;;;;;;;;;;;;;;;;;5132456;27;1104;-67
2022/06/18 00:18:11;;;;;;;;;;;;;;;;;;5131655;27;817;-68
2022/06/18 00:20:37;;;;;;;;;;;;;;;;;;5121666;27;1187;-69
2022/06/18 00:23:03;;;;;;;;;;;;;;;;;;5133543;27;781;-68
2022/06/18 00:25:28;;;;;;;;;;;;;;;;;;5133707;27;836;-69
2022/06/18 00:27:54;;;;;;;;;;;;;;;;;;5132925;27;1127;-69
2022/06/18 00:30:20;;;;;;;;;;;;;;;;;;5133972;27;1898;-66
2022/06/18 00:32:45;;;;;;;;;;;;;;;;;;5132216;27;911;-69
2022/06/18 00:35:12;;;;;;;;;;;;;;;;;;5133667;27;879;-69
2022/06/18 00:37:38;;;;;;;;;;;;;;;;;;5115669;27;1425;-67
2022/06/18 00:40:11;;;;;;;;;;;;;;;;;;5133528;27;902;-67
2022/06/18 00:42:37;;;;;;;;;;;;;;;;;;5132352;27;1196;-67
2022/06/18 00:45:03;;;;;;;;;;;;;;;;;;5133348;27;862;-67
2022/06/18 00:47:31;;;;;;;;;;;;;;;;;;5134069;27;958;-67
2022/06/18 00:50:02;;;;;;;;;;;;;;;;;;5133233;27;1889;-67
2022/06/18 00:52:28;;;;;;;;;;;;;;;;;;5133388;27;990;-67
2022/06/18 00:54:53;;;;;;;;;;;;;;;;;;5133252;27;903;-67
2022/06/18 00:57:28;;;;;;;;;;;;;;;;;;5133323;27;864;-67
2022/06/18 00:59:59;;;;;;;;;;;;;;;;;;5131855;27;1205;-67
2022/06/18 01:02:28;;;;;;;;;;;;;;;;;;5132581;27;1357;-67
2022/06/18 01:04:53;;;;;;;;;;;;;;;;;;5131367;27;1146;-67
2022/06/18 01:07:26;;;;;;;;;;;;;;;;;;5133086;27;883;-67
2022/06/18 01:09:52;;;;;;;;;;;;;;;;;;5132863;27;1953;-67
2022/06/18 01:12:18;;;;;;;;;;;;;;;;;;5132543;27;883;-67
2022/06/18 01:14:44;;;;;;;;;;;;;;;;;;5131660;27;1220;-68
2022/06/18 01:17:10;;;;;;;;;;;;;;;;;;5133807;27;899;-68
2022/06/18 01:19:38;;;;;;;;;;;;;;;;;;5132101;27;765;-68
2022/06/18 01:22:10;;;;;;;;;;;;;;;;;;5131900;27;1435;-67
2022/06/18 01:24:38;;;;;;;;;;;;;;;;;;5126561;27;1261;-67
2022/06/18 01:27:04;;;;;;;;;;;;;;;;;;5112862;27;1199;-67
2022/06/18 01:29:29;;;;;;;;;;;;;;;;;;5132656;27;1198;-68
2022/06/18 01:31:55;;;;;;;;;;;;;;;;;;5133044;27;1980;-68
2022/06/18 01:34:20;;;;;;;;;;;;;;;;;;5132044;27;883;-68
2022/06/18 01:36:46;;;;;;;;;;;;;;;;;;5132207;27;859;-68
2022/06/18 01:39:17;;;;;;;;;;;;;;;;;;5132746;27;793;-67
2022/06/18 01:41:51;;;;;;;;;;;;;;;;;;5130690;27;1161;-67
2022/06/18 01:44:20;;;;;;;;;;;;;;;;;;5132212;27;833;-68
2022/06/18 01:46:48;;;;;;;;;;;;;;;;;;5130594;27;1327;-67
2022/06/18 01:49:15;;;;;;;;;;;;;;;;;;5130670;27;1431;-67
2022/06/18 01:51:42;;;;;;;;;;;;;;;;;;5131969;27;1993;-67
2022/06/18 01:54:11;;;;;;;;;;;;;;;;;;5132267;27;766;-68
2022/06/18 01:56:45;;;;;;;;;;;;;;;;;;5130568;27;1413;-68
2022/06/18 01:59:15;;;;;;;;;;;;;;;;;;5130754;27;1295;-67
2022/06/18 02:01:42;;;;;;;;;;;;;;;;;;5132028;27;998;-67
2022/06/18 02:04:08;;;;;;;;;;;;;;;;;;5132249;27;974;-67
2022/06/18 02:06:35;;;;;;;;;;;;;;;;;;5132311;27;907;-67
2022/06/18 02:09:02;;;;;;;;;;;;;;;;;;5131891;27;868;-67
2022/06/18 02:11:27;;;;;;;;;;;;;;;;;;5131730;27;1905;-68
2022/06/18 02:13:56;;;;;;;;;;;;;;;;;;5131626;27;896;-67
2022/06/18 02:16:25;;;;;;;;;;;;;;;;;;5130472;27;1359;-67
2022/06/18 02:18:51;;;;;;;;;;;;;;;;;;5131634;27;848;-68
2022/06/18 02:21:19;;;;;;;;;;;;;;;;;;5132132;27;943;-68
2022/06/18 02:23:44;;;;;;;;;;;;;;;;;;5130068;27;946;-67
2022/06/18 02:26:09;;;;;;;;;;;;;;;;;;5131880;27;765;-67
2022/06/18 02:28:38;;;;;;;;;;;;;;;;;;5131078;27;1099;-68
2022/06/18 02:31:03;;;;;;;;;;;;;;;;;;5129947;27;1917;-67
2022/06/18 02:33:32;;;;;;;;;;;;;;;;;;5129941;27;923;-68
2022/06/18 02:35:58;;;;;;;;;;;;;;;;;;5129821;27;1194;-67
2022/06/18 02:38:23;;;;;;;;;;;;;;;;;;5131861;27;1006;-67
2022/06/18 02:40:49;;;;;;;;;;;;;;;;;;5129843;27;1198;-67
2022/06/18 02:43:16;;;;;;;;;;;;;;;;;;5131400;27;879;-67
2022/06/18 02:45:41;;;;;;;;;;;;;;;;;;5131676;27;903;-66
2022/06/18 02:48:09;;;;;;;;;;;;;;;;;;5130718;27;1328;-67
2022/06/18 02:50:36;;;;;;;;;;;;;;;;;;5130425;27;1917;-67
2022/06/18 02:53:02;;;;;;;;;;;;;;;;;;5131862;27;685;-67
2022/06/18 02:55:36;;;;;;;;;;;;;;;;;;5131771;27;942;-67
2022/06/18 02:58:13;;;;;;;;;;;;;;;;;;5132192;27;998;-68
2022/06/18 03:00:41;;;;;;;;;;;;;;;;;;5129944;27;1216;-67
2022/06/18 03:03:10;;;;;;;;;;;;;;;;;;5132163;27;946;-67
2022/06/18 03:05:36;;;;;;;;;;;;;;;;;;5130676;27;880;-67
2022/06/18 03:08:01;;;;;;;;;;;;;;;;;;5130803;27;898;-67
2022/06/18 03:13:11;;;;;;;;;;;;;;;;;;5130056;27;634;-67
2022/06/18 03:15:37;;;;;;;;;;;;;;;;;;5129546;28;1252;-67
2022/06/18 03:18:02;;;;;;;;;;;;;;;;;;5129252;27;1182;-67
2022/06/18 03:20:34;;;;;;;;;;;;;;;;;;5130965;27;832;-67
2022/06/18 03:23:00;;;;;;;;;;;;;;;;;;5130295;27;946;-67
2022/06/18 03:25:25;;;;;;;;;;;;;;;;;;5130735;27;959;-67
2022/06/18 03:27:50;;;;;;;;;;;;;;;;;;5129234;28;1033;-67
2022/06/18 03:30:16;;;;;;;;;;;;;;;;;;5130720;28;1988;-67
2022/06/18 03:32:41;;;;;;;;;;;;;;;;;;5131196;27;884;-67
2022/06/18 03:35:07;;;;;;;;;;;;;;;;;;5113061;27;1210;-67
2022/06/18 03:37:32;;;;;;;;;;;;;;;;;;5133701;27;907;-67
2022/06/18 03:39:58;;;;;;;;;;;;;;;;;;5116218;27;1340;-67
2022/06/18 03:42:23;;;;;;;;;;;;;;;;;;5135266;27;974;-67
2022/06/18 03:44:48;;;;;;;;;;;;;;;;;;5132862;27;1185;-67
2022/06/18 03:47:14;;;;;;;;;;;;;;;;;;5116134;27;1169;-67
2022/06/18 03:49:39;;;;;;;;;;;;;;;;;;5133189;27;1073;-67
2022/06/18 03:52:05;;;;;;;;;;;;;;;;;;5115733;27;1894;-67
2022/06/18 03:54:30;;;;;;;;;;;;;;;;;;5133213;27;1319;-67
2022/06/18 03:56:56;;;;;;;;;;;;;;;;;;5133785;27;899;-67
2022/06/18 03:59:21;;;;;;;;;;;;;;;;;;5134689;27;856;-67
2022/06/18 04:01:47;;;;;;;;;;;;;;;;;;5132249;27;1341;-67
2022/06/18 04:04:13;;;;;;;;;;;;;;;;;;5134418;27;765;-67
2022/06/18 04:06:39;;;;;;;;;;;;;;;;;;5115649;27;1198;-67
2022/06/18 04:09:05;;;;;;;;;;;;;;;;;;5134333;27;938;-67
2022/06/18 04:11:30;;;;;;;;;;;;;;;;;;5132923;27;1889;-66
2022/06/18 04:13:55;;;;;;;;;;;;;;;;;;5132501;27;832;-67
2022/06/18 04:16:20;;;;;;;;;;;;;;;;;;5134245;27;943;-67
2022/06/18 04:18:46;;;;;;;;;;;;;;;;;;5134099;27;916;-67
2022/06/18 04:21:11;;;;;;;;;;;;;;;;;;5135074;27;844;-67
2022/06/18 04:23:37;;;;;;;;;;;;;;;;;;5116690;27;1375;-67
2022/06/18 04:26:03;;;;;;;;;;;;;;;;;;5134419;27;1156;-67
2022/06/18 04:28:28;;;;;;;;;;;;;;;;;;5134511;27;1160;-67
2022/06/18 04:30:53;;;;;;;;;;;;;;;;;;5128346;27;1906;-67
2022/06/18 04:33:18;;;;;;;;;;;;;;;;;;5112929;28;796;-67
2022/06/18 04:35:44;;;;;;;;;;;;;;;;;;5096619;28;1239;-66
2022/06/18 04:38:10;;;;;;;;;;;;;;;;;;5112694;28;1260;-66
2022/06/18 04:40:35;;;;;;;;;;;;;;;;;;5115322;28;829;-66
2022/06/18 04:43:02;;;;;;;;;;;;;;;;;;5114494;28;942;-66
2022/06/18 04:45:28;;;;;;;;;;;;;;;;;;5114816;28;782;-66
2022/06/18 04:47:53;;;;;;;;;;;;;;;;;;5112857;28;766;-67
2022/06/18 04:50:21;;;;;;;;;;;;;;;;;;5114897;28;1961;-67
2022/06/18 04:52:46;;;;;;;;;;;;;;;;;;5113978;28;844;-67
2022/06/18 04:55:12;;;;;;;;;;;;;;;;;;5115170;28;875;-67
2022/06/18 04:57:37;;;;;;;;;;;;;;;;;;5114968;28;935;-67
2022/06/18 05:00:06;;;;;;;;;;;;;;;;;;5114082;28;850;-66
2022/06/18 05:02:32;;;;;;;;;;;;;;;;;;5113028;28;1190;-66
2022/06/18 05:04:57;;;;;;;;;;;;;;;;;;5112343;28;896;-67
2022/06/18 05:07:23;;;;;;;;;;;;;;;;;;5112426;28;911;-67
2022/06/18 05:09:48;;;;;;;;;;;;;;;;;;5112276;28;844;-66
2022/06/18 05:12:13;;;;;;;;;;;;;;;;;;5093960;28;1971;-66
2022/06/18 05:14:39;;;;;;;;;;;;;;;;;;5111143;28;1267;-66
2022/06/18 05:17:05;;;;;;;;;;;;;;;;;;5112002;28;911;-66
2022/06/18 05:19:32;;;;;;;;;;;;;;;;;;5112606;28;895;-67
2022/06/18 05:21:57;;;;;;;;;;;;;;;;;;5111821;28;891;-66
2022/06/18 05:24:23;;;;;;;;;;;;;;;;;;5111225;28;1187;-66
2022/06/18 05:26:50;;;;;;;;;;;;;;;;;;5109321;28;1583;-66
2022/06/18 05:29:16;;;;;;;;;;;;;;;;;;5111742;28;1073;-67
2022/06/18 05:31:42;;;;;;;;;;;;;;;;;;5111661;28;1963;-67
2022/06/18 05:34:07;;;;;;;;;;;;;;;;;;5110863;28;1266;-67
2022/06/18 05:36:33;;;;;;;;;;;;;;;;;;5112051;27;1149;-68
2022/06/18 05:38:59;;;;;;;;;;;;;;;;;;5111302;28;956;-67
2022/06/18 05:41:25;;;;;;;;;;;;;;;;;;5111770;28;848;-67
2022/06/18 05:43:50;;;;;;;;;;;;;;;;;;5111423;28;906;-66
2022/06/18 05:46:15;;;;;;;;;;;;;;;;;;5111969;28;875;-66
2022/06/18 05:48:41;;;;;;;;;;;;;;;;;;5111950;28;1224;-66
2022/06/18 05:51:07;;;;;;;;;;;;;;;;;;5111251;28;1894;-66
2022/06/18 05:53:32;;;;;;;;;;;;;;;;;;5109906;28;1154;-66
2022/06/18 05:55:57;;;;;;;;;;;;;;;;;;5111396;28;806;-66
2022/06/18 05:58:22;;;;;;;;;;;;;;;;;;5110569;28;1243;-66
2022/06/18 06:00:47;;;;;;;;;;;;;;;;;;5110627;28;999;-66
2022/06/18 06:03:13;;;;;;;;;;;;;;;;;;5112089;28;860;-66
2022/06/18 06:05:38;;;;;;;;;;;;;;;;;;5111876;28;955;-66
2022/06/18 06:08:04;;;;;;;;;;;;;;;;;;5110925;28;892;-66
2022/06/18 06:13:17;;;;;;;;;;;;;;;;;;5112169;28;643;-66
2022/06/18 06:15:43;;;;;;;;;;;;;;;;;;5110986;28;784;-66
2022/06/18 06:18:10;;;;;;;;;;;;;;;;;;5109487;28;1273;-67
2022/06/18 06:20:38;;;;;;;;;;;;;;;;;;5110969;28;942;-66
2022/06/18 06:23:04;;;;;;;;;;;;;;;;;;5109277;28;1352;-65
2022/06/18 06:25:29;;;;;;;;;;;;;;;;;;5111339;28;970;-65
2022/06/18 06:27:54;;;;;;;;;;;;;;;;;;5110285;28;993;-66
2022/06/18 06:30:20;;;;;;;;;;;;;;;;;;5108941;28;2035;-65
2022/06/18 06:32:45;;;;;;;;;;;;;;;;;;5110369;28;990;-65
2022/06/18 06:35:11;;;;;;;;;;;;;;;;;;5109771;28;813;-65
2022/06/18 06:37:37;;;;;;;;;;;;;;;;;;5109545;28;879;-65
2022/06/18 06:40:03;;;;;;;;;;;;;;;;;;5091739;28;1408;-65
2022/06/18 06:42:28;;;;;;;;;;;;;;;;;;5111044;28;927;-66
2022/06/18 06:44:54;;;;;;;;;;;;;;;;;;5109376;28;1006;-65
2022/06/18 06:47:19;;;;;;;;;;;;;;;;;;5110768;28;931;-66
2022/06/18 06:49:45;;;;;;;;;;;;;;;;;;5110624;28;1021;-66
2022/06/18 06:52:10;;;;;;;;;;;;;;;;;;5092266;28;1901;-66
2022/06/18 06:54:35;;;;;;;;;;;;;;;;;;5109302;28;1163;-66
2022/06/18 06:59:45;;;;;;;;;;;;;;;;;;5110484;28;755;-65
2022/06/18 07:02:13;;;;;;;;;;;;;;;;;;5110655;28;836;-66
2022/06/18 07:04:39;;;;;;;;;;;;;;;;;;5111229;28;891;-66
2022/06/18 07:07:04;;;;;;;;;;;;;;;;;;5108859;28;1114;-65
2022/06/18 07:09:29;;;;;;;;;;;;;;;;;;5109492;28;844;-66
2022/06/18 07:11:54;;;;;;;;;;;;;;;;;;5114531;28;1968;-66
2022/06/18 07:14:20;;;;;;;;;;;;;;;;;;5096438;28;1280;-66
2022/06/18 07:16:49;;;;;;;;;;;;;;;;;;5114388;28;903;-66
2022/06/18 07:19:15;;;;;;;;;;;;;;;;;;5114858;27;840;-65
2022/06/18 07:21:40;;;;;;;;;;;;;;;;;;5114706;28;883;-66
2022/06/18 07:24:05;;;;;;;;;;;;;;;;;;5095735;28;1218;-66
2022/06/18 07:26:31;;;;;;;;;;;;;;;;;;5113576;28;1225;-66
2022/06/18 07:28:56;;;;;;;;;;;;;;;;;;5112013;28;1299;-66
2022/06/18 07:31:25;;;;;;;;;;;;;;;;;;5095600;28;1906;-67
2022/06/18 07:33:51;;;;;;;;;;;;;;;;;;5114484;28;974;-66
2022/06/18 07:36:16;;;;;;;;;;;;;;;;;;5113514;28;837;-66
2022/06/18 07:38:42;;;;;;;;;;;;;;;;;;5114243;28;911;-66
2022/06/18 07:41:07;;;;;;;;;;;;;;;;;;5113579;28;1499;-66
2022/06/18 07:43:40;;;;;;;;;;;;;;;;;;5113399;28;1306;-66
2022/06/18 07:46:06;;;;;;;;;;;;;;;;;;5114555;27;959;-66
2022/06/18 07:48:32;;;;;;;;;;;;;;;;;;5114577;28;884;-66
2022/06/18 07:50:58;;;;;;;;;;;;;;;;;;5113598;28;1902;-66
2022/06/18 07:53:24;;;;;;;;;;;;;;;;;;5112489;28;1393;-66
2022/06/18 07:55:49;;;;;;;;;;;;;;;;;;5113687;28;907;-66
2022/06/18 07:58:15;;;;;;;;;;;;;;;;;;5113639;28;946;-66
2022/06/18 08:00:42;;;;;;;;;;;;;;;;;;5113997;28;900;-66
2022/06/18 08:03:08;;;;;;;;;;;;;;;;;;5113998;28;848;-66
2022/06/18 08:05:34;;;;;;;;;;;;;;;;;;5112487;28;1981;-65
2022/06/18 08:07:59;;;;;;;;;;;;;;;;;;5113438;28;765;-66
2022/06/18 08:10:24;;;;;;;;;;;;;;;;;;5112244;28;1969;-66
2022/06/18 08:12:50;;;;;;;;;;;;;;;;;;5113394;28;757;-66
2022/06/18 08:15:15;;;;;;;;;;;;;;;;;;5113427;28;1158;-66
2022/06/18 08:17:41;;;;;;;;;;;;;;;;;;5113247;28;934;-66
2022/06/18 08:20:08;;;;;;;;;;;;;;;;;;5112969;28;899;-66
2022/06/18 08:22:34;;;;;;;;;;;;;;;;;;5113838;28;852;-66
2022/06/18 08:25:00;;;;;;;;;;;;;;;;;;5112220;28;1185;-66
2022/06/18 08:27:26;;;;;;;;;;;;;;;;;;5111929;28;1249;-66
2022/06/18 08:29:51;;;;;;;;;;;;;;;;;;5111592;28;1216;-66
2022/06/18 08:32:16;;;;;;;;;;;;;;;;;;5111861;28;1965;-66
2022/06/18 08:34:42;;;;;;;;;;;;;;;;;;5113551;28;856;-66
2022/06/18 08:37:08;;;;;;;;;;;;;;;;;;5113621;28;817;-67
2022/06/18 08:39:33;;;;;;;;;;;;;;;;;;5113248;28;890;-66
2022/06/18 08:42:02;;;;;;;;;;;;;;;;;;5112712;28;1034;-67
2022/06/18 08:44:34;;;;;;;;;;;;;;;;;;5112055;28;1198;-67
2022/06/18 08:47:05;;;;;;;;;;;;;;;;;;5112572;28;1006;-67
2022/06/18 08:49:30;;;;;;;;;;;;;;;;;;5111410;28;1269;-67
2022/06/18 08:52:04;;;;;;;;;;;;;;;;;;5111053;28;1905;-66
2022/06/18 08:54:53;;;;;;;;;;;;;;;;;;5112962;28;958;-66
2022/06/18 08:57:30;;;;;;;;;;;;;;;;;;5093265;28;1091;-67
2022/06/18 09:00:01;;;;;;;;;;;;;;;;;;5112171;28;833;-67
2022/06/18 09:02:46;;;;;;;;;;;;;;;;;;5112749;28;924;-67
2022/06/18 09:05:15;;;;;;;;;;;;;;;;;;5113189;28;1370;-67
2022/06/18 09:07:43;;;;;;;;;;;;;;;;;;5111413;28;1189;-66
2022/06/18 09:10:26;;;;;;;;;;;;;;;;;;5113377;28;1901;-67
2022/06/18 09:12:56;;;;;;;;;;;;;;;;;;5113091;28;837;-67
2022/06/18 09:15:24;;;;;;;;;;;;;;;;;;5113157;28;1077;-66
2022/06/18 09:18:19;;;;;;;;;;;;;;;;;;5112949;28;765;-67
2022/06/18 09:20:55;;;;;;;;;;;;;;;;;;5103140;28;1234;-67
2022/06/18 09:23:20;;;;;;;;;;;;;;;;;;5112412;28;924;-66
2022/06/18 09:25:47;;;;;;;;;;;;;;;;;;5112321;28;836;-67
2022/06/18 09:28:16;;;;;;;;;;;;;;;;;;5110781;28;1146;-67
2022/06/18 09:30:44;;;;;;;;;;;;;;;;;;5111440;28;1906;-67
2022/06/18 09:33:16;;;;;;;;;;;;;;;;;;5110916;28;1503;-67
2022/06/18 09:36:01;;;;;;;;;;;;;;;;;;5110666;28;1372;-67
2022/06/18 09:38:48;;;;;;;;;;;;;;;;;;5110652;28;1335;-67
2022/06/18 09:41:29;;;;;;;;;;;;;;;;;;5112327;27;891;-66
2022/06/18 09:44:07;;;;;;;;;;;;;;;;;;5111842;28;836;-67
2022/06/18 09:46:50;;;;;;;;;;;;;;;;;;5112259;28;931;-68
2022/06/18 09:49:16;;;;;;;;;;;;;;;;;;5112645;28;1030;-65
2022/06/18 09:51:52;;;;;;;;;;;;;;;;;;5111306;28;1963;-66
2022/06/18 09:54:18;;;;;;;;;;;;;;;;;;5091450;28;1372;-66
2022/06/18 09:56:46;;;;;;;;;;;;;;;;;;5091066;28;817;-66
2022/06/18 09:59:16;;;;;;;;;;;;;;;;;;5093109;28;903;-66
2022/06/18 10:01:42;;;;;;;;;;;;;;;;;;5092518;28;1018;-67
2022/06/18 10:07:08;;;;;;;;;;;;;;;;;;5080404;28;1218;-66
2022/06/18 10:09:36;;;;;;;;;;;;;;;;;;5091155;28;1388;-67
2022/06/18 10:12:18;;;;;;;;;;;;;;;;;;5092518;28;1875;-67
2022/06/18 10:14:43;;;;;;;;;;;;;;;;;;5091150;28;848;-66
2022/06/18 10:17:32;;;;;;;;;;;;;;;;;;5090249;28;1304;-66
2022/06/18 10:19:57;;;;;;;;;;;;;;;;;;5084339;28;1445;-66
2022/06/18 10:22:34;;;;;;;;;;;;;;;;;;5091460;28;884;-66
2022/06/18 10:25:05;;;;;;;;;;;;;;;;;;5090824;28;904;-66
2022/06/18 10:27:35;;;;;;;;;;;;;;;;;;5089439;28;1286;-66
2022/06/18 10:30:05;;;;;;;;;;;;;;;;;;5090724;28;1255;-66
2022/06/18 10:32:35;;;;;;;;;;;;;;;;;;5091034;28;1212;-66
2022/06/18 10:35:00;;;;;;;;;;;;;;;;;;5090456;28;864;-66
2022/06/18 10:37:36;;;;;;;;;;;;;;;;;;5090797;28;888;-66
2022/06/18 10:40:13;;;;;;;;;;;;;;;;;;5126066;27;1250;-67
2022/06/18 10:42:50;;;;;;;;;;;;;;;;;;5131964;27;872;-66
2022/06/18 10:45:15;;;;;;;;;;;;;;;;;;5131747;27;859;-66
2022/06/18 10:47:43;;;;;;;;;;;;;;;;;;5131875;27;836;-66
2022/06/18 10:50:11;;;;;;;;;;;;;;;;;;5132154;27;1898;-65
2022/06/18 10:52:38;;;;;;;;;;;;;;;;;;5132330;27;891;-66
2022/06/18 10:55:20;;;;;;;;;;;;;;;;;;5132712;27;820;-66
2022/06/18 10:57:46;;;;;;;;;;;;;;;;;;5131283;27;891;-66
2022/06/18 11:00:14;;;;;;;;;;;;;;;;;;5132311;27;824;-66
2022/06/18 11:02:40;;;;;;;;;;;;;;;;;;5131803;27;950;-66
2022/06/18 11:05:14;;;;;;;;;;;;;;;;;;5113193;28;1421;-66
2022/06/18 11:07:45;;;;;;;;;;;;;;;;;;5129590;27;1222;-66
2022/06/18 11:10:26;;;;;;;;;;;;;;;;;;5131634;27;1910;-66
2022/06/18 11:12:54;;;;;;;;;;;;;;;;;;5129022;28;1288;-66
2022/06/18 11:15:22;;;;;;;;;;;;;;;;;;5129946;27;1389;-66
2022/06/18 11:17:47;;;;;;;;;;;;;;;;;;5130792;27;1065;-66
2022/06/18 11:20:13;;;;;;;;;;;;;;;;;;5129887;28;1135;-66
2022/06/18 11:22:38;;;;;;;;;;;;;;;;;;5130911;28;1359;-66
2022/06/18 11:25:04;;;;;;;;;;;;;;;;;;5130805;28;855;-66
2022/06/18 11:27:32;;;;;;;;;;;;;;;;;;5131169;27;934;-66
2022/06/18 11:29:58;;;;;;;;;;;;;;;;;;5130724;27;1186;-66
2022/06/18 11:32:36;;;;;;;;;;;;;;;;;;5129840;27;1909;-66
2022/06/18 11:35:05;;;;;;;;;;;;;;;;;;5129337;27;1222;-66
2022/06/18 11:37:31;;;;;;;;;;;;;;;;;;5129849;28;1154;-66
2022/06/18 11:39:58;;;;;;;;;;;;;;;;;;5130488;27;778;-66
2022/06/18 11:42:38;;;;;;;;;;;;;;;;;;5130963;27;911;-66
2022/06/18 11:45:22;;;;;;;;;;;;;;;;;;5130721;28;880;-66
2022/06/18 11:47:51;;;;;;;;;;;;;;;;;;5130673;27;989;-66
2022/06/18 11:50:45;;;;;;;;;;;;;;;;;;5129259;28;1967;-66
2022/06/18 11:53:19;;;;;;;;;;;;;;;;;;5117755;27;1435;-66
2022/06/18 11:55:48;;;;;;;;;;;;;;;;;;5128873;27;1161;-66
2022/06/18 11:58:33;;;;;;;;;;;;;;;;;;5134766;27;850;-66
2022/06/18 12:01:03;;;;;;;;;;;;;;;;;;5132429;27;1245;-66
2022/06/18 12:03:28;;;;;;;;;;;;;;;;;;5134260;27;773;-66
2022/06/18 12:06:15;;;;;;;;;;;;;;;;;;5133739;27;825;-66
2022/06/18 12:08:41;;;;;;;;;;;;;;;;;;5134685;27;848;-66
2022/06/18 12:11:25;;;;;;;;;;;;;;;;;;5132778;27;1917;-66
2022/06/18 12:13:53;;;;;;;;;;;;;;;;;;5134383;27;911;-66
2022/06/18 12:16:37;;;;;;;;;;;;;;;;;;5134407;27;879;-66
2022/06/18 12:19:10;;;;;;;;;;;;;;;;;;5132553;27;1452;-66
2022/06/18 12:21:35;;;;;;;;;;;;;;;;;;5134767;27;871;-66
2022/06/18 12:24:11;;;;;;;;;;;;;;;;;;5133777;27;820;-66
2022/06/18 12:26:39;;;;;;;;;;;;;;;;;;5133156;27;1138;-66
2022/06/18 12:29:31;;;;;;;;;;;;;;;;;;5134038;27;1070;-67
2022/06/18 12:32:03;;;;;;;;;;;;;;;;;;5101262;27;1965;-66
2022/06/18 12:34:40;;;;;;;;;;;;;;;;;;5134625;27;753;-66
2022/06/18 12:37:24;;;;;;;;;;;;;;;;;;5134753;27;904;-66
2022/06/18 12:39:55;;;;;;;;;;;;;;;;;;5134530;27;915;-66
2022/06/18 12:42:26;;;;;;;;;;;;;;;;;;5135196;27;856;-66
2022/06/18 12:45:01;;;;;;;;;;;;;;;;;;5133914;27;853;-66
2022/06/18 12:47:29;;;;;;;;;;;;;;;;;;5134869;27;962;-65
2022/06/18 12:50:13;;;;;;;;;;;;;;;;;;5132032;27;1480;-66
2022/06/18 12:52:57;;;;;;;;;;;;;;;;;;5132538;27;1304;-67
2022/06/18 12:55:32;;;;;;;;;;;;;;;;;;5133841;27;789;-66
2022/06/18 12:58:23;;;;;;;;;;;;;;;;;;5131985;27;967;-64
2022/06/18 13:00:59;;;;;;;;;;;;;;;;;;5108762;27;1321;-66
2022/06/18 13:03:35;;;;;;;;;;;;;;;;;;5132427;27;1099;-66
2022/06/18 13:06:12;;;;;;;;;;;;;;;;;;5133337;27;848;-66
2022/06/18 13:08:43;;;;;;;;;;;;;;;;;;5131476;27;1296;-64
2022/06/18 13:11:14;;;;;;;;;;;;;;;;;;5133167;27;1979;-64
2022/06/18 13:13:48;;;;;;;;;;;;;;;;;;5133626;27;1181;-66
2022/06/18 13:16:33;;;;;;;;;;;;;;;;;;5133158;27;1141;-66
2022/06/18 13:18:59;;;;;;;;;;;;;;;;;;5131242;27;1447;-65
2022/06/18 13:21:24;;;;;;;;;;;;;;;;;;5133232;27;860;-66
2022/06/18 13:29:34;;;;;;;;;;;;;;;;;;5132615;27;1273;-66
2022/06/18 13:32:17;;;;;;;;;;;;;;;;;;5131995;27;1909;-65
2022/06/18 13:34:57;;;;;;;;;;;;;;;;;;5133376;27;1004;-66
2022/06/18 13:37:27;;;;;;;;;;;;;;;;;;5132827;27;1146;-66
2022/06/18 13:39:52;;;;;;;;;;;;;;;;;;5132976;27;903;-66
2022/06/18 13:42:23;;;;;;;;;;;;;;;;;;5131560;27;1216;-66
2022/06/18 13:44:48;;;;;;;;;;;;;;;;;;5132652;27;961;-66
2022/06/18 13:47:17;;;;;;;;;;;;;;;;;;5132778;27;911;-66
2022/06/18 13:49:48;;;;;;;;;;;;;;;;;;5132796;27;947;-66
2022/06/18 13:52:15;;;;;;;;;;;;;;;;;;5132478;27;1967;-66
2022/06/18 13:54:51;;;;;;;;;;;;;;;;;;5133448;27;871;-66
2022/06/18 13:57:18;;;;;;;;;;;;;;;;;;5132796;27;855;-65
2022/06/18 13:59:52;;;;;;;;;;;;;;;;;;5132736;27;813;-66
2022/06/18 14:02:40;;;;;;;;;;;;;;;;;;5130830;27;1284;-65
2022/06/18 14:05:18;;;;;;;;;;;;;;;;;;5123382;27;1146;-66
2022/06/18 14:07:47;;;;;;;;;;;;;;;;;;5132205;27;785;-66
2022/06/18 14:10:15;;;;;;;;;;;;;;;;;;5133315;27;1894;-66
2022/06/18 14:12:41;;;;;;;;;;;;;;;;;;5133499;27;765;-66
2022/06/18 14:15:07;;;;;;;;;;;;;;;;;;5133320;27;836;-66
2022/06/18 14:17:44;;;;;;;;;;;;;;;;;;5131924;27;1305;-66
2022/06/18 14:20:27;;;;;;;;;;;;;;;;;;5133222;27;820;-65
2022/06/18 14:22:58;;;;;;;;;;;;;;;;;;5132318;27;820;-65
2022/06/18 14:25:24;;;;;;;;;;;;;;;;;;5131566;27;1260;-65
2022/06/18 14:27:49;;;;;;;;;;;;;;;;;;5131278;27;1081;-65
2022/06/18 14:30:23;;;;;;;;;;;;;;;;;;5131075;27;1901;-66
2022/06/18 14:33:05;;;;;;;;;;;;;;;;;;5131427;27;796;-66
2022/06/18 14:35:39;;;;;;;;;;;;;;;;;;5130439;27;1288;-65
2022/06/18 14:38:06;;;;;;;;;;;;;;;;;;5131472;27;942;-65
2022/06/18 14:41:34;;;;;;;;;;;;;;;;;;5132444;27;994;-66
2022/06/18 14:43:20;;;;;;;;;;;;;;;;;;5131485;27;800;-66
2022/06/18 14:46:00;;;;;;;;;;;;;;;;;;5131081;27;790;-66
2022/06/18 14:48:37;;;;;;;;;;;;;;;;;;5129915;27;1328;-66
2022/06/18 14:51:14;;;;;;;;;;;;;;;;;;5129761;27;1980;-66
2022/06/18 14:53:39;;;;;;;;;;;;;;;;;;5132069;27;900;-66
2022/06/18 14:56:18;;;;;;;;;;;;;;;;;;5131125;27;864;-65
2022/06/18 14:58:55;;;;;;;;;;;;;;;;;;5131534;27;848;-66
2022/06/18 15:01:40;;;;;;;;;;;;;;;;;;5131971;27;840;-66
2022/06/18 15:04:09;;;;;;;;;;;;;;;;;;5131765;27;1102;-66
2022/06/18 15:06:35;;;;;;;;;;;;;;;;;;5132458;27;851;-66
2022/06/18 15:09:00;;;;;;;;;;;;;;;;;;5131984;27;951;-67
2022/06/18 15:11:27;;;;;;;;;;;;;;;;;;5131996;27;1980;-66
2022/06/18 15:13:53;;;;;;;;;;;;;;;;;;5131635;27;836;-66
2022/06/18 15:19:04;;;;;;;;;;;;;;;;;;5131568;27;871;-66
2022/06/18 15:22:20;;;;;;;;;;;;;;;;;;5129908;27;1224;-66
2022/06/18 15:24:30;;;;;;;;;;;;;;;;;;5127015;28;1178;-66
2022/06/18 15:26:57;;;;;;;;;;;;;;;;;;5118837;27;1067;-66
2022/06/18 15:29:25;;;;;;;;;;;;;;;;;;5122748;28;1184;-66
2022/06/18 15:32:07;;;;;;;;;;;;;;;;;;5132396;27;1909;-66
2022/06/18 15:34:33;;;;;;;;;;;;;;;;;;5134629;27;1214;-66
2022/06/18 15:37:03;;;;;;;;;;;;;;;;;;5135146;27;840;-66
2022/06/18 15:39:28;;;;;;;;;;;;;;;;;;5135853;27;989;-67
2022/06/18 15:41:55;;;;;;;;;;;;;;;;;;5135881;27;982;-66
2022/06/18 15:44:23;;;;;;;;;;;;;;;;;;5134454;27;1196;-66
2022/06/18 15:46:51;;;;;;;;;;;;;;;;;;5135811;27;848;-66
2022/06/18 15:49:39;;;;;;;;;;;;;;;;;;5135167;27;1135;-66
2022/06/18 15:52:06;;;;;;;;;;;;;;;;;;5112925;27;1897;-66
2022/06/18 15:54:32;;;;;;;;;;;;;;;;;;5115186;28;896;-66
2022/06/18 15:57:01;;;;;;;;;;;;;;;;;;5113404;28;1434;-66
2022/06/18 15:59:27;;;;;;;;;;;;;;;;;;5124764;27;1032;-66
2022/06/18 16:01:53;;;;;;;;;;;;;;;;;;5119159;27;1286;-66
2022/06/18 16:04:19;;;;;;;;;;;;;;;;;;5135430;27;800;-66
2022/06/18 16:06:45;;;;;;;;;;;;;;;;;;5134715;27;922;-66
2022/06/18 16:09:10;;;;;;;;;;;;;;;;;;5132978;27;955;-66
2022/06/18 16:11:36;;;;;;;;;;;;;;;;;;5134340;27;1918;-66
2022/06/18 16:14:21;;;;;;;;;;;;;;;;;;5133851;27;910;-66
2022/06/18 16:16:49;;;;;;;;;;;;;;;;;;5133346;27;861;-66
2022/06/18 16:19:16;;;;;;;;;;;;;;;;;;5133877;27;807;-66
2022/06/18 16:21:43;;;;;;;;;;;;;;;;;;5134183;27;1221;-66
2022/06/18 16:24:15;;;;;;;;;;;;;;;;;;5126228;27;1241;-67
2022/06/18 16:26:40;;;;;;;;;;;;;;;;;;5129769;27;1164;-67
2022/06/18 16:29:05;;;;;;;;;;;;;;;;;;5128921;27;1386;-67
2022/06/18 16:31:36;;;;;;;;;;;;;;;;;;5113636;28;1974;-66
2022/06/18 16:34:02;;;;;;;;;;;;;;;;;;5113381;28;909;-67
2022/06/18 16:36:27;;;;;;;;;;;;;;;;;;5113249;28;892;-66
2022/06/18 16:38:53;;;;;;;;;;;;;;;;;;5112218;28;883;-67
2022/06/18 16:41:20;;;;;;;;;;;;;;;;;;5113544;28;848;-67
2022/06/18 16:43:48;;;;;;;;;;;;;;;;;;5112220;28;793;-66
2022/06/18 16:46:20;;;;;;;;;;;;;;;;;;5113624;28;773;-66
2022/06/18 16:48:45;;;;;;;;;;;;;;;;;;5113085;28;965;-67
2022/06/18 16:51:11;;;;;;;;;;;;;;;;;;5113559;28;1906;-67
2022/06/18 16:53:43;;;;;;;;;;;;;;;;;;5113570;28;1162;-66
2022/06/18 16:56:09;;;;;;;;;;;;;;;;;;5113528;27;828;-66
2022/06/18 16:58:34;;;;;;;;;;;;;;;;;;5111678;28;990;-66
2022/06/18 17:01:00;;;;;;;;;;;;;;;;;;5111623;28;1336;-67
2022/06/18 17:03:25;;;;;;;;;;;;;;;;;;5112694;28;836;-67
2022/06/18 17:05:51;;;;;;;;;;;;;;;;;;5112994;28;808;-66
2022/06/18 17:08:17;;;;;;;;;;;;;;;;;;5112978;28;853;-66
2022/06/18 17:10:46;;;;;;;;;;;;;;;;;;5112945;27;1905;-67
2022/06/18 17:13:18;;;;;;;;;;;;;;;;;;5111653;28;1216;-66
2022/06/18 17:15:44;;;;;;;;;;;;;;;;;;5112822;28;742;-66
2022/06/18 17:18:09;;;;;;;;;;;;;;;;;;5113165;28;777;-67
2022/06/18 17:20:34;;;;;;;;;;;;;;;;;;5112959;28;864;-66
2022/06/18 17:23:00;;;;;;;;;;;;;;;;;;5112462;28;996;-67
2022/06/18 17:31:08;;;;;;;;;;;;;;;;;;5111791;28;1979;-67
2022/06/18 17:33:37;;;;;;;;;;;;;;;;;;5111351;28;1234;-67
2022/06/18 17:36:05;;;;;;;;;;;;;;;;;;5111570;28;1193;-67
2022/06/18 17:38:30;;;;;;;;;;;;;;;;;;5112930;28;773;-66
2022/06/18 17:41:03;;;;;;;;;;;;;;;;;;5111190;28;927;-66
2022/06/18 17:43:29;;;;;;;;;;;;;;;;;;5111333;28;1194;-66
2022/06/18 17:45:54;;;;;;;;;;;;;;;;;;5112579;28;899;-66
2022/06/18 17:48:20;;;;;;;;;;;;;;;;;;5110830;28;1336;-66
2022/06/18 17:50:45;;;;;;;;;;;;;;;;;;5111557;28;1979;-66
2022/06/18 17:53:11;;;;;;;;;;;;;;;;;;5112695;28;821;-66